createdAt,value
2017-12-05T00:02:06.188Z,91.90
2017-12-05T00:04:33.636Z,91.80
2017-12-05T00:07:01.081Z,91.80
2017-12-05T00:09:28.533Z,91.90
2017-12-05T00:11:56.024Z,91.90
2017-12-05T00:14:23.457Z,92.00
2017-12-05T00:16:50.949Z,92.00
2017-12-05T00:19:18.397Z,92.00
2017-12-05T00:21:45.881Z,92.10
2017-12-05T00:24:13.313Z,92.10
2017-12-05T00:26:40.792Z,92.20
2017-12-05T00:29:08.240Z,92.20
2017-12-05T00:31:35.680Z,92.20
2017-12-05T00:34:03.544Z,92.20
2017-12-05T00:36:31.033Z,92.20
2017-12-05T00:38:58.501Z,92.10
2017-12-05T00:41:26.000Z,92.10
2017-12-05T00:43:53.576Z,92.00
2017-12-05T00:46:21.794Z,92.00
2017-12-05T00:48:49.233Z,91.90
2017-12-05T00:51:16.672Z,92.00
2017-12-05T00:53:44.195Z,91.90
2017-12-05T00:56:11.622Z,91.80
2017-12-05T00:58:39.421Z,91.80
2017-12-05T01:01:07.293Z,91.90
2017-12-05T01:03:34.735Z,91.80
2017-12-05T01:06:02.175Z,91.80
2017-12-05T01:08:29.624Z,91.80
2017-12-05T01:10:57.076Z,91.70
2017-12-05T01:13:24.512Z,91.80
2017-12-05T01:15:51.952Z,91.80
2017-12-05T01:18:19.532Z,91.80
2017-12-05T01:20:46.997Z,91.80
2017-12-05T01:23:14.461Z,91.80
2017-12-05T01:25:41.970Z,91.80
2017-12-05T01:28:09.395Z,91.90
2017-12-05T01:30:36.840Z,91.90
2017-12-05T01:33:05.150Z,92.00
2017-12-05T01:35:32.652Z,92.00
2017-12-05T01:38:00.096Z,92.10
2017-12-05T01:40:27.649Z,92.10
2017-12-05T01:42:55.865Z,92.00
2017-12-05T01:45:23.297Z,92.00
2017-12-05T01:47:50.736Z,92.00
2017-12-05T01:50:18.555Z,92.00
2017-12-05T01:52:46.013Z,92.40
2017-12-05T01:55:13.464Z,92.00
2017-12-05T01:57:40.900Z,92.00
2017-12-05T02:00:08.349Z,92.00
2017-12-05T02:02:35.878Z,92.00
2017-12-05T02:05:03.316Z,92.00
2017-12-05T02:07:30.761Z,92.00
2017-12-05T02:09:58.197Z,92.00
2017-12-05T02:12:25.705Z,92.00
2017-12-05T02:14:53.150Z,92.00
2017-12-05T02:17:20.571Z,92.10
2017-12-05T02:19:48.024Z,92.00
2017-12-05T02:22:15.452Z,92.10
2017-12-05T02:24:42.921Z,92.10
2017-12-05T02:27:10.357Z,92.10
2017-12-05T02:29:37.846Z,92.10
2017-12-05T02:32:05.296Z,92.10
2017-12-05T02:34:33.269Z,92.40
2017-12-05T02:37:01.137Z,92.10
2017-12-05T02:39:28.602Z,92.00
2017-12-05T02:41:56.065Z,92.10
2017-12-05T02:44:23.516Z,92.00
2017-12-05T02:46:50.985Z,92.10
2017-12-05T02:49:18.450Z,92.10
2017-12-05T02:51:45.911Z,92.00
2017-12-05T02:54:13.338Z,92.00
2017-12-05T02:56:40.796Z,92.10
2017-12-05T02:59:08.225Z,92.10
2017-12-05T03:01:35.656Z,92.00
2017-12-05T03:04:03.109Z,92.10
2017-12-05T03:06:30.688Z,92.10
2017-12-05T03:08:58.129Z,92.10
2017-12-05T03:11:25.562Z,92.10
2017-12-05T03:13:53.004Z,92.10
2017-12-05T03:16:20.448Z,92.10
2017-12-05T03:18:47.981Z,92.20
2017-12-05T03:21:15.427Z,92.20
2017-12-05T03:23:42.865Z,92.30
2017-12-05T03:26:10.311Z,92.40
2017-12-05T03:28:37.824Z,92.40
2017-12-05T03:31:05.299Z,92.40
2017-12-05T03:33:32.741Z,92.50
2017-12-05T03:36:00.210Z,92.40
2017-12-05T03:38:27.681Z,92.40
2017-12-05T03:40:55.161Z,92.70
2017-12-05T03:43:22.592Z,92.40
2017-12-05T03:45:50.067Z,92.40
2017-12-05T03:48:17.525Z,92.40
2017-12-05T03:50:44.974Z,92.30
2017-12-05T03:53:12.485Z,92.20
2017-12-05T03:55:39.871Z,92.20
2017-12-05T03:58:07.316Z,92.10
2017-12-05T04:00:34.756Z,92.10
2017-12-05T04:03:02.689Z,92.10
2017-12-05T04:05:31.049Z,92.00
2017-12-05T04:07:58.855Z,91.90
2017-12-05T04:10:26.705Z,92.00
2017-12-05T04:12:54.181Z,92.00
2017-12-05T04:15:21.612Z,91.90
2017-12-05T04:17:49.092Z,91.80
2017-12-05T04:20:16.568Z,91.80
2017-12-05T04:22:44.212Z,92.20
2017-12-05T04:25:11.885Z,91.80
2017-12-05T04:27:39.314Z,91.90
2017-12-05T04:30:06.768Z,91.90
2017-12-05T04:32:34.269Z,91.90
2017-12-05T04:35:01.721Z,92.00
2017-12-05T04:37:29.171Z,92.00
2017-12-05T04:39:56.643Z,92.00
2017-12-05T04:42:24.096Z,92.00
2017-12-05T04:44:51.540Z,92.00
2017-12-05T04:47:18.994Z,92.10
2017-12-05T04:49:46.424Z,92.10
2017-12-05T04:52:13.864Z,92.10
2017-12-05T04:54:41.432Z,92.10
2017-12-05T04:57:08.874Z,92.10
2017-12-05T04:59:36.324Z,92.00
2017-12-05T05:02:03.760Z,91.90
2017-12-05T05:04:31.186Z,91.80
2017-12-05T05:06:58.632Z,91.80
2017-12-05T05:09:26.078Z,91.70
2017-12-05T05:11:53.524Z,91.70
2017-12-05T05:14:21.100Z,91.60
2017-12-05T05:16:48.533Z,91.70
2017-12-05T05:19:16.054Z,91.70
2017-12-05T05:21:43.565Z,91.70
2017-12-05T05:24:11.016Z,91.70
2017-12-05T05:26:38.444Z,91.70
2017-12-05T05:29:05.884Z,91.70
2017-12-05T05:31:33.329Z,91.80
2017-12-05T05:34:00.788Z,91.80
2017-12-05T05:36:28.236Z,91.80
2017-12-05T05:38:56.116Z,91.80
2017-12-05T05:41:23.552Z,91.80
2017-12-05T05:43:51.052Z,91.70
2017-12-05T05:46:18.582Z,91.70
2017-12-05T05:48:46.038Z,91.70
2017-12-05T05:51:13.467Z,91.60
2017-12-05T05:53:40.896Z,91.60
2017-12-05T05:56:08.370Z,91.60
2017-12-05T05:58:35.804Z,91.70
2017-12-05T06:01:03.264Z,91.70
2017-12-05T06:03:30.757Z,91.70
2017-12-05T06:05:58.185Z,91.60
2017-12-05T06:08:25.641Z,91.70
2017-12-05T06:10:53.137Z,91.60
2017-12-05T06:13:20.614Z,91.70
2017-12-05T06:15:48.044Z,91.70
2017-12-05T06:18:15.484Z,91.80
2017-12-05T06:20:43.370Z,91.80
2017-12-05T06:23:10.819Z,91.80
2017-12-05T06:25:38.264Z,91.80
2017-12-05T06:28:05.837Z,91.80
2017-12-05T06:30:33.624Z,91.80
2017-12-05T06:33:01.097Z,91.80
2017-12-05T06:35:28.544Z,91.80
2017-12-05T06:37:56.001Z,91.80
2017-12-05T06:40:23.440Z,91.80
2017-12-05T06:42:50.937Z,91.80
2017-12-05T06:45:18.410Z,91.70
2017-12-05T06:47:45.843Z,91.80
2017-12-05T06:50:13.300Z,91.80
2017-12-05T06:52:40.729Z,91.80
2017-12-05T06:55:08.166Z,91.80
2017-12-05T06:57:35.631Z,91.80
2017-12-05T07:00:03.057Z,91.80
2017-12-05T07:02:30.521Z,91.70
2017-12-05T07:04:58.082Z,91.70
2017-12-05T07:07:25.513Z,91.70
2017-12-05T07:09:53.021Z,91.70
2017-12-05T07:12:20.454Z,91.60
2017-12-05T07:14:47.921Z,91.60
2017-12-05T07:17:15.362Z,91.60
2017-12-05T07:19:42.805Z,91.60
2017-12-05T07:22:10.250Z,91.60
2017-12-05T07:24:37.697Z,91.60
2017-12-05T07:27:05.280Z,91.70
2017-12-05T07:29:33.107Z,91.60
2017-12-05T07:32:00.552Z,91.60
2017-12-05T07:34:28.049Z,91.60
2017-12-05T07:36:55.906Z,91.60
2017-12-05T07:39:23.367Z,91.60
2017-12-05T07:41:50.789Z,91.50
2017-12-05T07:44:18.296Z,91.50
2017-12-05T07:46:45.745Z,91.50
2017-12-05T07:49:13.193Z,91.40
2017-12-05T07:51:40.656Z,91.40
2017-12-05T07:54:08.136Z,91.20
2017-12-05T07:56:35.576Z,91.20
2017-12-05T07:59:03.021Z,91.20
2017-12-05T08:01:30.452Z,91.10
2017-12-05T08:03:58.813Z,91.00
2017-12-05T08:06:26.261Z,91.00
2017-12-05T08:08:53.720Z,90.90
2017-12-05T08:11:21.176Z,90.90
2017-12-05T08:13:48.625Z,91.00
2017-12-05T08:16:16.081Z,91.00
2017-12-05T08:18:43.516Z,91.00
2017-12-05T08:21:10.967Z,91.30
2017-12-05T08:23:39.169Z,89.40
2017-12-05T08:26:06.605Z,89.30
2017-12-05T08:28:34.073Z,86.00
2017-12-05T08:31:01.518Z,83.10
2017-12-05T08:33:28.956Z,81.20
2017-12-05T08:35:56.605Z,79.70
2017-12-05T08:38:24.040Z,80.60
2017-12-05T08:40:51.508Z,81.00
2017-12-05T08:43:18.948Z,82.40
2017-12-05T08:45:46.387Z,83.20
2017-12-05T08:48:13.852Z,84.00
2017-12-05T08:50:41.384Z,84.00
2017-12-05T08:53:08.852Z,84.10
2017-12-05T08:55:36.295Z,84.50
2017-12-05T08:58:03.738Z,84.70
2017-12-05T09:00:31.210Z,84.50
2017-12-05T09:02:58.640Z,84.60
2017-12-05T09:05:26.065Z,84.80
2017-12-05T09:07:53.612Z,84.80
2017-12-05T09:10:21.068Z,83.70
2017-12-05T09:12:48.539Z,83.50
2017-12-05T09:15:15.966Z,80.90
2017-12-05T09:17:43.396Z,77.60
2017-12-05T09:20:11.336Z,75.90
2017-12-05T09:22:38.788Z,74.90
2017-12-05T09:25:06.216Z,72.40
2017-12-05T09:27:33.668Z,69.70
2017-12-05T09:30:01.109Z,67.40
2017-12-05T09:32:28.632Z,69.00
2017-12-05T09:34:56.068Z,70.30
2017-12-05T09:37:23.570Z,70.90
2017-12-05T09:39:51.021Z,68.40
2017-12-05T09:42:18.463Z,65.00
2017-12-05T09:44:45.925Z,64.50
2017-12-05T09:47:13.411Z,65.10
2017-12-05T09:49:40.888Z,65.10
2017-12-05T09:52:08.358Z,63.30
2017-12-05T09:54:35.979Z,62.00
2017-12-05T09:57:03.654Z,62.30
2017-12-05T09:59:31.136Z,61.20
2017-12-05T10:01:58.996Z,60.90
2017-12-05T10:04:26.441Z,61.80
2017-12-05T10:06:53.880Z,63.20
2017-12-05T10:09:21.388Z,66.40
2017-12-05T10:11:48.849Z,68.40
2017-12-05T10:14:16.294Z,70.00
2017-12-05T10:16:43.764Z,71.60
2017-12-05T10:19:11.232Z,72.30
2017-12-05T10:21:38.669Z,73.60
2017-12-05T10:24:06.109Z,74.40
2017-12-05T10:26:33.617Z,75.10
2017-12-05T10:29:01.058Z,75.60
2017-12-05T10:31:28.484Z,76.50
2017-12-05T10:33:56.710Z,78.00
2017-12-05T10:36:24.146Z,77.80
2017-12-05T10:38:51.613Z,78.30
2017-12-05T10:41:19.036Z,79.10
2017-12-05T10:43:47.464Z,79.60
2017-12-05T10:46:14.920Z,79.60
2017-12-05T10:48:42.410Z,80.00
2017-12-05T10:51:09.816Z,80.50
2017-12-05T10:53:37.250Z,80.80
2017-12-05T10:56:05.449Z,81.60
2017-12-05T10:58:33.070Z,81.40
2017-12-05T11:01:00.505Z,81.30
2017-12-05T11:03:27.985Z,81.00
2017-12-05T11:05:55.460Z,80.80
2017-12-05T11:08:22.924Z,80.80
2017-12-05T11:10:50.382Z,81.30
2017-12-05T11:13:17.835Z,81.10
2017-12-05T11:15:45.296Z,80.80
2017-12-05T11:18:12.739Z,80.20
2017-12-05T11:20:40.169Z,80.20
2017-12-05T11:23:07.640Z,79.90
2017-12-05T11:25:35.064Z,80.00
2017-12-05T11:28:03.277Z,80.20
2017-12-05T11:30:30.779Z,80.20
2017-12-05T11:32:58.210Z,79.70
2017-12-05T11:35:25.642Z,80.00
2017-12-05T11:37:53.080Z,80.30
2017-12-05T11:40:22.032Z,80.90
2017-12-05T11:42:49.504Z,80.70
2017-12-05T11:45:17.296Z,80.40
2017-12-05T11:47:44.744Z,80.10
2017-12-05T11:50:12.192Z,80.40
2017-12-05T11:52:39.671Z,79.90
2017-12-05T11:55:07.140Z,80.40
2017-12-05T11:57:34.585Z,80.80
2017-12-05T12:00:02.069Z,80.50
2017-12-05T12:02:29.713Z,80.80
2017-12-05T12:04:57.133Z,81.30
2017-12-05T12:07:25.677Z,81.30
2017-12-05T12:09:53.145Z,81.10
2017-12-05T12:12:21.003Z,81.30
2017-12-05T12:14:48.496Z,81.40
2017-12-05T12:17:15.926Z,81.10
2017-12-05T12:19:43.368Z,81.10
2017-12-05T12:22:10.808Z,81.40
2017-12-05T12:24:38.716Z,81.30
2017-12-05T12:27:06.177Z,81.30
2017-12-05T12:29:33.608Z,81.80
2017-12-05T12:32:01.036Z,81.80
2017-12-05T12:34:28.968Z,81.90
2017-12-05T12:36:56.850Z,81.90
2017-12-05T12:39:24.321Z,83.10
2017-12-05T12:41:51.780Z,82.20
2017-12-05T12:44:19.236Z,82.50
2017-12-05T12:46:46.790Z,82.60
2017-12-05T12:49:14.241Z,82.70
2017-12-05T12:51:41.701Z,83.00
2017-12-05T12:54:09.486Z,83.20
2017-12-05T12:56:36.951Z,83.20
2017-12-05T12:59:04.813Z,83.00
2017-12-05T13:01:32.281Z,83.00
2017-12-05T13:03:59.822Z,83.30
2017-12-05T13:06:27.238Z,83.50
2017-12-05T13:08:54.668Z,83.70
2017-12-05T13:11:22.115Z,83.80
2017-12-05T13:13:49.580Z,83.50
2017-12-05T13:16:17.061Z,83.50
2017-12-05T13:18:44.549Z,83.80
2017-12-05T13:21:12.377Z,84.00
2017-12-05T13:23:39.809Z,84.00
2017-12-05T13:26:07.281Z,84.10
2017-12-05T13:28:34.767Z,84.50
2017-12-05T13:31:02.227Z,84.60
2017-12-05T13:33:29.682Z,84.50
2017-12-05T13:35:57.114Z,84.60
2017-12-05T13:38:24.625Z,84.40
2017-12-05T13:40:52.122Z,84.50
2017-12-05T13:43:19.720Z,84.30
2017-12-05T13:45:47.141Z,84.70
2017-12-05T13:48:15.680Z,84.80
2017-12-05T13:50:43.116Z,84.80
2017-12-05T13:53:10.614Z,84.90
2017-12-05T13:55:38.473Z,85.10
2017-12-05T13:58:05.960Z,85.20
2017-12-05T14:00:33.436Z,85.40
2017-12-05T14:03:00.890Z,86.40
2017-12-05T14:05:28.733Z,85.70
2017-12-05T14:07:56.192Z,85.80
2017-12-05T14:10:23.661Z,86.20
2017-12-05T14:12:51.114Z,86.40
2017-12-05T14:15:18.560Z,86.40
2017-12-05T14:17:46.001Z,86.40
2017-12-05T14:20:13.437Z,86.60
2017-12-05T14:22:40.876Z,86.50
2017-12-05T14:25:08.333Z,86.60
2017-12-05T14:27:35.773Z,86.60
2017-12-05T14:30:03.345Z,86.80
2017-12-05T14:32:30.793Z,87.10
2017-12-05T14:34:58.221Z,86.90
2017-12-05T14:37:25.806Z,87.10
2017-12-05T14:39:53.250Z,87.40
2017-12-05T14:42:21.131Z,87.60
2017-12-05T14:44:48.576Z,87.50
2017-12-05T14:47:16.045Z,87.40
2017-12-05T14:49:44.340Z,87.50
2017-12-05T14:52:11.780Z,87.50
2017-12-05T14:54:39.250Z,87.50
2017-12-05T14:57:06.689Z,87.40
2017-12-05T14:59:34.560Z,87.10
2017-12-05T15:02:02.409Z,87.30
2017-12-05T15:04:29.844Z,87.30
2017-12-05T15:06:57.300Z,87.30
2017-12-05T15:09:24.761Z,87.30
2017-12-05T15:11:52.257Z,87.40
2017-12-05T15:14:19.699Z,87.50
2017-12-05T15:16:47.573Z,87.70
2017-12-05T15:19:15.028Z,87.60
2017-12-05T15:21:42.462Z,87.60
2017-12-05T15:24:09.964Z,87.60
2017-12-05T15:26:37.411Z,87.70
2017-12-05T15:29:04.910Z,87.80
2017-12-05T15:31:32.362Z,87.80
2017-12-05T15:33:59.802Z,87.90
2017-12-05T15:36:27.265Z,87.80
2017-12-05T15:38:54.784Z,87.70
2017-12-05T15:41:22.226Z,88.00
2017-12-05T15:43:49.678Z,88.40
2017-12-05T15:46:17.110Z,88.00
2017-12-05T15:48:44.580Z,87.90
2017-12-05T15:51:12.147Z,88.10
2017-12-05T15:53:39.578Z,88.20
2017-12-05T15:56:07.079Z,88.50
2017-12-05T15:58:34.524Z,88.80
2017-12-05T16:01:01.973Z,88.90
2017-12-05T16:03:29.425Z,88.90
2017-12-05T16:05:57.172Z,88.90
2017-12-05T16:08:24.658Z,89.00
2017-12-05T16:10:52.097Z,89.20
2017-12-05T16:13:19.610Z,89.30
2017-12-05T16:15:47.162Z,89.20
2017-12-05T16:18:14.603Z,89.50
2017-12-05T16:20:42.061Z,89.30
2017-12-05T16:23:09.501Z,89.00
2017-12-05T16:25:36.946Z,88.80
2017-12-05T16:28:04.689Z,88.80
2017-12-05T16:30:32.221Z,88.90
2017-12-05T16:32:59.745Z,88.90
2017-12-05T16:35:27.140Z,88.90
2017-12-05T16:37:54.588Z,88.70
2017-12-05T16:40:22.084Z,88.80
2017-12-05T16:42:49.541Z,88.80
2017-12-05T16:45:17.013Z,88.70
2017-12-05T16:47:44.451Z,88.60
2017-12-05T16:50:11.911Z,88.80
2017-12-05T16:52:39.352Z,88.80
2017-12-05T16:55:06.861Z,88.80
2017-12-05T16:57:34.322Z,88.90
2017-12-05T17:00:01.772Z,89.00
2017-12-05T17:02:29.209Z,89.10
2017-12-05T17:04:56.729Z,89.30
2017-12-05T17:07:24.173Z,89.10
2017-12-05T17:09:51.640Z,89.10
2017-12-05T17:12:19.167Z,89.10
2017-12-05T17:14:46.618Z,89.20
2017-12-05T17:17:14.077Z,89.10
2017-12-05T17:19:41.513Z,89.50
2017-12-05T17:22:08.978Z,89.30
2017-12-05T17:24:36.638Z,89.30
2017-12-05T17:27:04.382Z,88.70
2017-12-05T17:29:31.825Z,88.80
2017-12-05T17:31:59.270Z,88.60
2017-12-05T17:34:26.716Z,88.50
2017-12-05T17:36:54.146Z,88.70
2017-12-05T17:39:21.576Z,88.50
2017-12-05T17:41:49.036Z,88.30
2017-12-05T17:44:16.486Z,88.20
2017-12-05T17:46:43.975Z,88.30
2017-12-05T17:49:11.430Z,88.40
2017-12-05T17:51:38.878Z,88.40
2017-12-05T17:54:06.324Z,88.60
2017-12-05T17:56:33.780Z,88.60
2017-12-05T17:59:01.229Z,89.10
2017-12-05T18:01:28.673Z,88.70
2017-12-05T18:03:56.131Z,88.50
2017-12-05T18:06:23.641Z,89.30
2017-12-05T18:08:51.169Z,88.50
2017-12-05T18:11:18.574Z,88.60
2017-12-05T18:13:46.021Z,88.60
2017-12-05T18:16:13.468Z,88.60
2017-12-05T18:18:41.036Z,88.70
2017-12-05T18:21:08.477Z,88.60
2017-12-05T18:23:35.922Z,88.60
2017-12-05T18:26:03.775Z,88.70
2017-12-05T18:28:31.209Z,88.70
2017-12-05T18:30:58.648Z,88.60
2017-12-05T18:33:26.125Z,88.60
2017-12-05T18:35:53.591Z,88.60
2017-12-05T18:38:22.818Z,88.50
2017-12-05T18:40:50.249Z,88.50
2017-12-05T18:43:18.039Z,88.60
2017-12-05T18:45:45.486Z,88.50
2017-12-05T18:48:13.042Z,88.70
2017-12-05T18:50:40.458Z,88.70
2017-12-05T18:53:08.274Z,88.90
2017-12-05T18:55:35.725Z,89.00
2017-12-05T18:58:03.249Z,89.10
2017-12-05T19:00:31.085Z,89.10
2017-12-05T19:02:58.520Z,89.10
2017-12-05T19:05:26.015Z,89.20
2017-12-05T19:07:53.476Z,89.10
2017-12-05T19:10:20.933Z,89.10
2017-12-05T19:12:48.364Z,89.10
2017-12-05T19:15:15.840Z,89.20
2017-12-05T19:17:43.281Z,89.20
2017-12-05T19:20:10.772Z,89.30
2017-12-05T19:22:38.224Z,89.20
2017-12-05T19:25:05.788Z,89.20
2017-12-05T19:27:33.556Z,89.30
2017-12-05T19:30:01.044Z,89.20
2017-12-05T19:32:28.489Z,89.10
2017-12-05T19:34:55.973Z,89.20
2017-12-05T19:37:23.410Z,89.10
2017-12-05T19:39:50.886Z,89.10
2017-12-05T19:42:18.358Z,89.30
2017-12-05T19:44:46.208Z,89.30
2017-12-05T19:47:13.689Z,89.30
2017-12-05T19:49:41.537Z,89.40
2017-12-05T19:52:08.999Z,89.30
2017-12-05T19:54:36.439Z,89.30
2017-12-05T19:57:03.873Z,89.50
2017-12-05T19:59:31.408Z,89.60
2017-12-05T20:01:58.848Z,89.60
2017-12-05T20:04:26.308Z,89.70
2017-12-05T20:06:53.760Z,89.70
2017-12-05T20:09:21.200Z,89.60
2017-12-05T20:11:48.768Z,89.70
2017-12-05T20:14:16.203Z,89.70
2017-12-05T20:16:43.689Z,89.70
2017-12-05T20:19:11.478Z,89.80
2017-12-05T20:21:38.919Z,89.80
2017-12-05T20:24:06.386Z,89.80
2017-12-05T20:26:33.856Z,89.90
2017-12-05T20:29:01.313Z,90.00
2017-12-05T20:31:28.770Z,90.00
2017-12-05T20:33:56.224Z,90.00
2017-12-05T20:36:23.725Z,90.00
2017-12-05T20:38:51.148Z,90.10
2017-12-05T20:41:18.592Z,90.10
2017-12-05T20:43:46.124Z,90.10
2017-12-05T20:46:13.553Z,90.20
2017-12-05T20:48:41.029Z,90.30
2017-12-05T20:51:08.474Z,90.40
2017-12-05T20:53:35.915Z,90.40
2017-12-05T20:56:03.428Z,90.40
2017-12-05T20:58:30.968Z,90.40
2017-12-05T21:00:59.167Z,90.40
2017-12-05T21:03:27.013Z,90.40
2017-12-05T21:05:54.451Z,90.40
2017-12-05T21:08:21.905Z,90.40
2017-12-05T21:10:49.392Z,90.40
2017-12-05T21:13:16.869Z,90.50
2017-12-05T21:15:44.317Z,90.50
2017-12-05T21:18:11.785Z,90.60
2017-12-05T21:20:39.239Z,90.60
2017-12-05T21:23:06.710Z,90.50
2017-12-05T21:25:34.178Z,90.50
2017-12-05T21:28:01.642Z,90.50
2017-12-05T21:30:29.075Z,90.60
2017-12-05T21:32:56.539Z,90.60
2017-12-05T21:35:24.380Z,90.60
2017-12-05T21:37:51.876Z,90.60
2017-12-05T21:40:19.357Z,90.60
2017-12-05T21:42:46.788Z,90.50
2017-12-05T21:45:14.638Z,90.60
2017-12-05T21:47:42.141Z,90.60
2017-12-05T21:50:09.608Z,90.60
2017-12-05T21:52:37.140Z,90.70
2017-12-05T21:55:04.654Z,90.70
2017-12-05T21:57:32.358Z,90.70
2017-12-05T21:59:59.793Z,90.70
2017-12-05T22:02:27.377Z,90.80
2017-12-05T22:04:54.852Z,90.70
2017-12-05T22:07:22.304Z,90.80
2017-12-05T22:09:50.098Z,90.80
2017-12-05T22:12:17.537Z,90.70
2017-12-05T22:14:45.036Z,90.70
2017-12-05T22:17:12.497Z,90.60
2017-12-05T22:19:39.932Z,90.70
2017-12-05T22:22:07.373Z,90.60
2017-12-05T22:24:34.828Z,90.60
2017-12-05T22:27:02.408Z,90.60
2017-12-05T22:29:29.889Z,90.60
2017-12-05T22:31:57.332Z,90.60
2017-12-05T22:34:24.785Z,90.50
2017-12-05T22:36:52.241Z,90.50
2017-12-05T22:39:19.793Z,90.50
2017-12-05T22:41:48.045Z,90.40
2017-12-05T22:44:15.493Z,90.40
2017-12-05T22:46:42.930Z,90.40
2017-12-05T22:49:10.401Z,90.30
2017-12-05T22:51:38.176Z,90.40
2017-12-05T22:54:05.676Z,90.40
2017-12-05T22:56:33.121Z,90.30
2017-12-05T22:59:00.635Z,90.30
2017-12-05T23:01:28.081Z,90.30
2017-12-05T23:03:55.544Z,90.20
2017-12-05T23:06:23.352Z,90.30
2017-12-05T23:08:50.783Z,90.20
2017-12-05T23:11:18.680Z,90.20
2017-12-05T23:13:46.207Z,90.20
2017-12-05T23:16:13.644Z,90.20
2017-12-05T23:18:41.482Z,90.20
2017-12-05T23:21:08.962Z,90.10
2017-12-05T23:23:36.394Z,90.20
2017-12-05T23:26:03.885Z,90.10
2017-12-05T23:28:31.728Z,90.10
2017-12-05T23:30:59.234Z,90.00
2017-12-05T23:33:27.066Z,90.00
2017-12-05T23:35:54.498Z,89.90
2017-12-05T23:38:22.393Z,89.80
2017-12-05T23:40:49.829Z,89.70
2017-12-05T23:43:17.296Z,89.70
2017-12-05T23:45:44.796Z,89.60
2017-12-05T23:48:12.252Z,89.50
2017-12-05T23:50:39.792Z,90.10
2017-12-05T23:53:07.241Z,89.30
2017-12-05T23:55:34.713Z,90.00
2017-12-05T23:58:02.500Z,89.20
